createdAt,value
2017-01-26T00:00:02.856Z,-2.22
2017-01-26T00:01:11.549Z,-2.26
2017-01-26T00:02:20.235Z,-2.22
2017-01-26T00:03:28.924Z,-2.28
2017-01-26T00:04:37.604Z,-2.34
2017-01-26T00:05:46.285Z,-2.34
2017-01-26T00:06:54.966Z,-2.37
2017-01-26T00:08:03.653Z,-2.29
2017-01-26T00:09:12.337Z,-2.32
2017-01-26T00:10:21.018Z,-2.32
2017-01-26T00:11:29.703Z,-2.26
2017-01-26T00:12:38.387Z,-2.34
2017-01-26T00:13:47.074Z,-2.36
2017-01-26T00:14:55.756Z,-2.33
2017-01-26T00:16:04.442Z,-2.23
2017-01-26T00:17:13.131Z,-2.36
2017-01-26T00:18:21.821Z,-2.33
2017-01-26T00:19:30.515Z,-2.47
2017-01-26T00:20:39.202Z,-2.37
2017-01-26T00:21:47.885Z,-2.42
2017-01-26T00:22:56.572Z,-2.45
2017-01-26T00:24:05.253Z,-2.5
2017-01-26T00:25:13.933Z,-2.48
2017-01-26T00:26:22.613Z,-2.39
2017-01-26T00:27:31.300Z,-2.55
2017-01-26T00:28:39.988Z,-2.52
2017-01-26T00:29:48.669Z,-2.52
2017-01-26T00:30:57.353Z,-2.58
2017-01-26T00:32:06.039Z,-2.57
2017-01-26T00:33:14.726Z,-2.63
2017-01-26T00:34:23.409Z,-2.62
2017-01-26T00:35:32.089Z,-2.68
2017-01-26T00:36:40.774Z,-2.54
2017-01-26T00:37:49.458Z,-2.54
2017-01-26T00:38:58.141Z,-2.58
2017-01-26T00:40:06.826Z,-2.54
2017-01-26T00:41:15.511Z,-2.5
2017-01-26T00:42:24.199Z,-2.5
2017-01-26T00:43:32.914Z,-2.58
2017-01-26T00:44:41.601Z,-2.57
2017-01-26T00:45:50.312Z,-2.54
2017-01-26T00:46:58.996Z,-2.54
2017-01-26T00:48:07.686Z,-2.51
2017-01-26T00:49:16.373Z,-2.55
2017-01-26T00:50:25.058Z,-2.52
2017-01-26T00:51:33.744Z,-2.5
2017-01-26T00:52:42.424Z,-2.54
2017-01-26T00:53:51.106Z,-2.65
2017-01-26T00:54:59.823Z,-2.65
2017-01-26T00:56:08.520Z,-2.75
2017-01-26T00:57:17.206Z,-2.72
2017-01-26T00:58:25.893Z,-2.86
2017-01-26T00:59:34.576Z,-2.89
2017-01-26T01:00:43.256Z,-2.86
2017-01-26T01:01:51.942Z,-2.87
2017-01-26T01:03:00.622Z,-2.9
2017-01-26T01:04:09.712Z,-2.8
2017-01-26T01:05:18.398Z,-2.9
2017-01-26T01:06:27.085Z,-2.9
2017-01-26T01:07:36.170Z,-2.9
2017-01-26T01:08:44.857Z,-2.87
2017-01-26T01:09:53.540Z,-2.83
2017-01-26T01:11:02.255Z,-2.76
2017-01-26T01:12:10.936Z,-2.75
2017-01-26T01:13:19.620Z,-2.8
2017-01-26T01:14:28.304Z,-2.76
2017-01-26T01:15:36.992Z,-2.75
2017-01-26T01:16:45.670Z,-2.69
2017-01-26T01:17:54.353Z,-2.72
2017-01-26T01:19:03.434Z,-2.69
2017-01-26T01:20:12.122Z,-2.63
2017-01-26T01:21:20.813Z,-2.68
2017-01-26T01:22:29.494Z,-2.69
2017-01-26T01:23:38.188Z,-2.57
2017-01-26T01:24:46.875Z,-2.52
2017-01-26T01:25:55.560Z,-2.58
2017-01-26T01:27:04.246Z,-2.52
2017-01-26T01:28:12.935Z,-2.52
2017-01-26T01:29:21.620Z,-2.5
2017-01-26T01:30:30.306Z,-2.57
2017-01-26T01:31:38.987Z,-2.45
2017-01-26T01:32:47.671Z,-2.58
2017-01-26T01:33:56.349Z,-2.58
2017-01-26T01:35:05.036Z,-2.52
2017-01-26T01:36:13.728Z,-2.52
2017-01-26T01:37:22.417Z,-2.52
2017-01-26T01:38:31.107Z,-2.52
2017-01-26T01:39:39.793Z,-2.54
2017-01-26T01:40:48.480Z,-2.47
2017-01-26T01:41:57.199Z,-2.47
2017-01-26T01:43:05.888Z,-2.4
2017-01-26T01:44:14.572Z,-2.45
2017-01-26T01:45:23.257Z,-2.42
2017-01-26T01:46:31.944Z,-2.42
2017-01-26T01:47:40.638Z,-2.37
2017-01-26T01:48:49.322Z,-2.36
2017-01-26T01:49:58.013Z,-2.39
2017-01-26T01:51:06.703Z,-2.37
2017-01-26T01:52:15.403Z,-2.39
2017-01-26T01:53:24.087Z,-2.44
2017-01-26T01:54:32.770Z,-2.4
2017-01-26T01:55:41.457Z,-2.39
2017-01-26T01:56:50.139Z,-2.37
2017-01-26T01:57:58.829Z,-2.45
2017-01-26T01:59:07.518Z,-2.45
2017-01-26T02:00:16.205Z,-2.48
2017-01-26T02:01:24.894Z,-2.45
2017-01-26T02:02:33.579Z,-2.36
2017-01-26T02:03:42.262Z,-2.47
2017-01-26T02:04:50.945Z,-2.34
2017-01-26T02:05:59.630Z,-2.42
2017-01-26T02:07:08.315Z,-2.33
2017-01-26T02:08:17.000Z,-2.44
2017-01-26T02:09:25.697Z,-2.36
2017-01-26T02:10:34.384Z,-2.45
2017-01-26T02:11:43.068Z,-2.37
2017-01-26T02:12:51.751Z,-2.34
2017-01-26T02:14:00.433Z,-2.32
2017-01-26T02:15:09.122Z,-2.23
2017-01-26T02:16:17.839Z,-2.22
2017-01-26T02:17:26.537Z,-2.33
2017-01-26T02:18:35.220Z,-2.26
2017-01-26T02:19:43.907Z,-2.25
2017-01-26T02:20:52.611Z,-2.23
2017-01-26T02:22:01.290Z,-2.15
2017-01-26T02:23:09.981Z,-2.29
2017-01-26T02:24:18.661Z,-2.23
2017-01-26T02:25:27.345Z,-2.18
2017-01-26T02:26:36.029Z,-2.28
2017-01-26T02:27:44.715Z,-2.23
2017-01-26T02:28:53.401Z,-2.22
2017-01-26T02:30:02.088Z,-2.26
2017-01-26T02:31:10.773Z,-2.2
2017-01-26T02:32:19.463Z,-2.36
2017-01-26T02:33:28.542Z,-2.32
2017-01-26T02:34:37.233Z,-2.36
2017-01-26T02:35:45.917Z,-2.34
2017-01-26T02:36:54.603Z,-2.34
2017-01-26T02:38:03.288Z,-2.18
2017-01-26T02:39:11.979Z,-2.14
2017-01-26T02:40:20.663Z,-2.22
2017-01-26T02:41:29.372Z,-2.2
2017-01-26T02:42:38.055Z,-2.14
2017-01-26T02:43:46.772Z,-2.22
2017-01-26T02:44:55.455Z,-2.13
2017-01-26T02:46:04.142Z,-2.23
2017-01-26T02:47:12.830Z,-2.17
2017-01-26T02:48:21.518Z,-2.14
2017-01-26T02:49:30.202Z,-2.17
2017-01-26T02:50:38.893Z,-2.1
2017-01-26T02:51:47.577Z,-2.13
2017-01-26T02:52:56.266Z,-2.07
2017-01-26T02:54:04.954Z,-2.13
2017-01-26T02:55:13.641Z,-2.15
2017-01-26T02:56:22.359Z,-2.1
2017-01-26T02:57:31.041Z,-2.13
2017-01-26T02:58:39.723Z,-2.05
2017-01-26T02:59:48.407Z,-2.15
2017-01-26T03:00:57.092Z,-2.17
2017-01-26T03:02:05.777Z,-2.18
2017-01-26T03:03:14.462Z,-2.2
2017-01-26T03:04:23.150Z,-2.22
2017-01-26T03:05:31.839Z,-2.28
2017-01-26T03:06:40.528Z,-2.26
2017-01-26T03:07:49.218Z,-2.22
2017-01-26T03:08:57.900Z,-2.28
2017-01-26T03:10:06.589Z,-2.2
2017-01-26T03:11:15.294Z,-2.14
2017-01-26T03:12:23.977Z,-2.1
2017-01-26T03:13:32.666Z,-2.15
2017-01-26T03:14:41.351Z,-2.18
2017-01-26T03:15:50.033Z,-2.18
2017-01-26T03:16:58.721Z,-2.34
2017-01-26T03:18:07.409Z,-2.25
2017-01-26T03:19:16.095Z,-2.29
2017-01-26T03:20:24.782Z,-2.36
2017-01-26T03:21:33.462Z,-2.37
2017-01-26T03:22:42.142Z,-2.29
2017-01-26T03:23:50.856Z,-2.4
2017-01-26T03:24:59.554Z,-2.4
2017-01-26T03:26:08.235Z,-2.57
2017-01-26T03:27:16.919Z,-2.58
2017-01-26T03:28:25.598Z,-2.68
2017-01-26T03:29:34.283Z,-2.75
2017-01-26T03:30:42.970Z,-2.83
2017-01-26T03:31:51.654Z,-2.89
2017-01-26T03:33:00.337Z,-2.9
2017-01-26T03:34:09.017Z,-2.89
2017-01-26T03:35:17.716Z,-2.8
2017-01-26T03:36:26.400Z,-2.86
2017-01-26T03:37:35.086Z,-2.87
2017-01-26T03:38:43.767Z,-2.94
2017-01-26T03:39:52.455Z,-2.94
2017-01-26T03:41:01.139Z,-3.01
2017-01-26T03:42:09.823Z,-3.02
2017-01-26T03:43:18.504Z,-3.11
2017-01-26T03:44:27.186Z,-2.98
2017-01-26T03:45:35.897Z,-3.02
2017-01-26T03:46:44.586Z,-3.01
2017-01-26T03:47:53.267Z,-2.99
2017-01-26T03:49:01.949Z,-3.01
2017-01-26T03:50:10.658Z,-2.94
2017-01-26T03:51:19.343Z,-2.91
2017-01-26T03:52:28.027Z,-2.86
2017-01-26T03:53:36.708Z,-2.86
2017-01-26T03:54:45.389Z,-2.86
2017-01-26T03:55:54.074Z,-2.87
2017-01-26T03:57:02.763Z,-2.76
2017-01-26T03:58:11.446Z,-2.65
2017-01-26T03:59:20.150Z,-2.65
2017-01-26T04:00:28.831Z,-2.72
2017-01-26T04:01:37.572Z,-2.72
2017-01-26T04:02:46.256Z,-2.65
2017-01-26T04:03:54.937Z,-2.65
2017-01-26T04:05:03.624Z,-2.62
2017-01-26T04:06:12.302Z,-2.61
2017-01-26T04:07:20.983Z,-2.54
2017-01-26T04:08:29.664Z,-2.5
2017-01-26T04:09:38.362Z,-2.48
2017-01-26T04:10:47.046Z,-2.55
2017-01-26T04:11:55.735Z,-2.45
2017-01-26T04:13:04.416Z,-2.51
2017-01-26T04:14:13.101Z,-2.37
2017-01-26T04:15:21.789Z,-2.45
2017-01-26T04:16:30.495Z,-2.29
2017-01-26T04:17:39.177Z,-2.36
2017-01-26T04:18:47.863Z,-2.47
2017-01-26T04:19:56.544Z,-2.37
2017-01-26T04:21:05.231Z,-2.33
2017-01-26T04:22:13.914Z,-2.37
2017-01-26T04:23:22.601Z,-2.36
2017-01-26T04:24:31.291Z,-2.32
2017-01-26T04:25:39.973Z,-2.28
2017-01-26T04:26:48.660Z,-2.26
2017-01-26T04:28:00.377Z,-2.29
2017-01-26T04:29:09.070Z,-2.29
2017-01-26T04:30:17.761Z,-2.22
2017-01-26T04:31:26.445Z,-2.22
2017-01-26T04:32:35.162Z,-2.25
2017-01-26T04:33:43.848Z,-2.28
2017-01-26T04:34:52.532Z,-2.2
2017-01-26T04:36:01.242Z,-2.32
2017-01-26T04:37:09.930Z,-2.25
2017-01-26T04:38:18.611Z,-2.2
2017-01-26T04:39:27.688Z,-2.2
2017-01-26T04:40:36.375Z,-2.17
2017-01-26T04:41:45.059Z,-2.17
2017-01-26T04:42:53.740Z,-2.08
2017-01-26T04:44:02.422Z,-2.1
2017-01-26T04:45:11.107Z,-1.96
2017-01-26T04:46:19.791Z,-2.04
2017-01-26T04:47:28.477Z,-1.96
2017-01-26T04:48:37.157Z,-1.89
2017-01-26T04:49:45.843Z,-1.9
2017-01-26T04:50:54.527Z,-1.93
2017-01-26T04:52:03.232Z,-1.81
2017-01-26T04:53:11.921Z,-1.81
2017-01-26T04:54:20.600Z,-1.74
2017-01-26T04:55:29.281Z,-1.71
2017-01-26T04:56:38.017Z,-1.71
2017-01-26T04:57:46.703Z,-1.75
2017-01-26T04:58:55.782Z,-1.72
2017-01-26T05:00:04.467Z,-1.74
2017-01-26T05:01:13.560Z,-1.78
2017-01-26T05:02:22.243Z,-1.81
2017-01-26T05:03:30.955Z,-1.84
2017-01-26T05:04:39.644Z,-1.74
2017-01-26T05:05:48.331Z,-1.75
2017-01-26T05:06:57.015Z,-1.72
2017-01-26T05:08:05.705Z,-1.74
2017-01-26T05:09:14.394Z,-1.72
2017-01-26T05:10:23.085Z,-1.79
2017-01-26T05:11:31.769Z,-1.93
2017-01-26T05:12:40.459Z,-1.92
2017-01-26T05:13:49.171Z,-1.81
2017-01-26T05:14:57.856Z,-1.87
2017-01-26T05:16:06.542Z,-1.76
2017-01-26T05:17:15.225Z,-1.89
2017-01-26T05:18:23.913Z,-1.81
2017-01-26T05:19:32.593Z,-1.86
2017-01-26T05:20:41.276Z,-1.9
2017-01-26T05:21:49.963Z,-1.79
2017-01-26T05:22:58.653Z,-1.9
2017-01-26T05:24:07.342Z,-2
2017-01-26T05:25:16.032Z,-2.02
2017-01-26T05:26:24.733Z,-2.18
2017-01-26T05:27:33.425Z,-2.2
2017-01-26T05:28:42.107Z,-2.29
2017-01-26T05:29:50.785Z,-2.39
2017-01-26T05:30:59.467Z,-2.36
2017-01-26T05:32:08.154Z,-2.37
2017-01-26T05:33:16.835Z,-2.32
2017-01-26T05:34:25.517Z,-2.36
2017-01-26T05:35:34.311Z,-2.26
2017-01-26T05:36:43.006Z,-2.34
2017-01-26T05:37:51.718Z,-2.26
2017-01-26T05:39:00.400Z,-2.33
2017-01-26T05:40:09.080Z,-2.29
2017-01-26T05:41:17.762Z,-2.36
2017-01-26T05:42:26.441Z,-2.29
2017-01-26T05:43:35.125Z,-2.32
2017-01-26T05:44:43.809Z,-2.29
2017-01-26T05:45:52.491Z,-2.28
2017-01-26T05:47:01.180Z,-2.22
2017-01-26T05:48:09.863Z,-2.23
2017-01-26T05:49:18.544Z,-2.11
2017-01-26T05:50:27.230Z,-2.07
2017-01-26T05:51:35.919Z,-2
2017-01-26T05:52:44.607Z,-2.05
2017-01-26T05:53:53.291Z,-2.02
2017-01-26T05:55:01.972Z,-2.02
2017-01-26T05:56:10.659Z,-2.02
2017-01-26T05:57:19.349Z,-2.1
2017-01-26T05:58:28.034Z,-2.08
2017-01-26T05:59:36.751Z,-2.14
2017-01-26T06:00:45.435Z,-2.18
2017-01-26T06:01:54.116Z,-2.08
2017-01-26T06:03:02.801Z,-2.2
2017-01-26T06:04:11.490Z,-2.11
2017-01-26T06:05:20.173Z,-2.11
2017-01-26T06:06:28.857Z,-2
2017-01-26T06:07:37.545Z,-2.02
2017-01-26T06:08:46.230Z,-2.04
2017-01-26T06:09:54.914Z,-1.92
2017-01-26T06:11:03.602Z,-1.84
2017-01-26T06:12:12.281Z,-1.9
2017-01-26T06:13:20.962Z,-1.74
2017-01-26T06:14:29.647Z,-1.75
2017-01-26T06:15:38.332Z,-1.68
2017-01-26T06:16:47.018Z,-1.71
2017-01-26T06:17:55.697Z,-1.64
2017-01-26T06:19:04.384Z,-1.66
2017-01-26T06:20:13.065Z,-1.64
2017-01-26T06:21:21.752Z,-1.63
2017-01-26T06:22:30.440Z,-1.66
2017-01-26T06:23:39.124Z,-1.46
2017-01-26T06:24:47.814Z,-1.45
2017-01-26T06:25:56.495Z,-1.54
2017-01-26T06:27:05.182Z,-1.51
2017-01-26T06:28:14.264Z,-1.6
2017-01-26T06:29:22.970Z,-1.48
2017-01-26T06:30:32.050Z,-1.43
2017-01-26T06:31:40.732Z,-1.46
2017-01-26T06:32:49.413Z,-1.45
2017-01-26T06:33:58.117Z,-1.36
2017-01-26T06:35:06.806Z,-1.43
2017-01-26T06:36:15.487Z,-1.36
2017-01-26T06:37:24.171Z,-1.45
2017-01-26T06:38:32.856Z,-1.32
2017-01-26T06:39:41.539Z,-1.35
2017-01-26T06:40:50.257Z,-1.4
2017-01-26T06:41:58.972Z,-1.38
2017-01-26T06:43:07.654Z,-1.42
2017-01-26T06:44:16.341Z,-1.48
2017-01-26T06:45:25.026Z,-1.53
2017-01-26T06:46:33.712Z,-1.74
2017-01-26T06:47:42.397Z,-1.69
2017-01-26T06:48:51.081Z,-1.87
2017-01-26T06:49:59.765Z,-1.94
2017-01-26T06:51:08.848Z,-1.9
2017-01-26T06:52:17.534Z,-1.93
2017-01-26T06:53:26.216Z,-1.96
2017-01-26T06:54:34.908Z,-2
2017-01-26T06:55:43.590Z,-2.14
2017-01-26T06:56:52.275Z,-2.13
2017-01-26T06:58:00.967Z,-2.1
2017-01-26T06:59:09.651Z,-2.07
2017-01-26T07:00:18.333Z,-2.1
2017-01-26T07:01:27.017Z,-2.13
2017-01-26T07:02:35.707Z,-2.15
2017-01-26T07:03:44.390Z,-2.08
2017-01-26T07:04:53.080Z,-2.13
2017-01-26T07:06:01.766Z,-2.14
2017-01-26T07:07:10.454Z,-2.05
2017-01-26T07:08:19.137Z,-2
2017-01-26T07:09:27.819Z,-2.04
2017-01-26T07:10:36.528Z,-1.99
2017-01-26T07:11:45.211Z,-1.92
2017-01-26T07:12:53.892Z,-1.84
2017-01-26T07:14:02.982Z,-1.81
2017-01-26T07:15:11.667Z,-1.82
2017-01-26T07:16:20.350Z,-1.76
2017-01-26T07:17:29.032Z,-1.79
2017-01-26T07:18:37.723Z,-1.68
2017-01-26T07:19:46.451Z,-1.69
2017-01-26T07:20:55.131Z,-1.68
2017-01-26T07:22:03.813Z,-1.54
2017-01-26T07:23:12.503Z,-1.46
2017-01-26T07:24:21.192Z,-1.56
2017-01-26T07:25:29.903Z,-1.43
2017-01-26T07:26:38.586Z,-1.35
2017-01-26T07:27:47.269Z,-1.4
2017-01-26T07:28:55.957Z,-1.3
2017-01-26T07:30:04.648Z,-1.33
2017-01-26T07:31:13.332Z,-1.3
2017-01-26T07:32:22.013Z,-1.32
2017-01-26T07:33:30.707Z,-1.35
2017-01-26T07:34:39.392Z,-1.3
2017-01-26T07:35:48.082Z,-1.33
2017-01-26T07:36:56.775Z,-1.43
2017-01-26T07:38:05.462Z,-1.39
2017-01-26T07:39:14.143Z,-1.45
2017-01-26T07:40:22.828Z,-1.4
2017-01-26T07:41:31.515Z,-1.36
2017-01-26T07:42:40.229Z,-1.46
2017-01-26T07:43:48.922Z,-1.57
2017-01-26T07:44:57.610Z,-1.45
2017-01-26T07:46:06.296Z,-1.54
2017-01-26T07:47:14.987Z,-1.53
2017-01-26T07:48:23.679Z,-1.53
2017-01-26T07:49:32.369Z,-1.48
2017-01-26T07:50:41.050Z,-1.61
2017-01-26T07:51:49.760Z,-1.6
2017-01-26T07:52:58.446Z,-1.72
2017-01-26T07:54:07.156Z,-1.81
2017-01-26T07:55:15.842Z,-1.93
2017-01-26T07:56:24.522Z,-1.97
2017-01-26T07:57:33.207Z,-1.97
2017-01-26T07:58:41.888Z,-1.96
2017-01-26T07:59:50.584Z,-2.02
2017-01-26T08:00:59.324Z,-2.02
2017-01-26T08:02:08.408Z,-2
2017-01-26T08:03:17.094Z,-2.07
2017-01-26T08:04:25.773Z,-2.02
2017-01-26T08:05:34.458Z,-2.05
2017-01-26T08:06:43.144Z,-2.11
2017-01-26T08:07:51.828Z,-2.13
2017-01-26T08:09:00.520Z,-2.13
2017-01-26T08:10:09.234Z,-2.08
2017-01-26T08:11:17.918Z,-2.13
2017-01-26T08:12:26.600Z,-2.13
2017-01-26T08:13:35.285Z,-2.13
2017-01-26T08:14:43.979Z,-2.1
2017-01-26T08:15:52.675Z,-2.07
2017-01-26T08:17:01.400Z,-2.05
2017-01-26T08:18:10.088Z,-1.97
2017-01-26T08:19:18.766Z,-1.96
2017-01-26T08:20:27.472Z,-1.94
2017-01-26T08:21:36.163Z,-1.87
2017-01-26T08:22:44.869Z,-1.96
2017-01-26T08:23:53.551Z,-1.9
2017-01-26T08:25:02.238Z,-1.92
2017-01-26T08:26:10.923Z,-1.93
2017-01-26T08:27:19.604Z,-1.89
2017-01-26T08:28:28.687Z,-1.92
2017-01-26T08:29:37.374Z,-1.92
2017-01-26T08:30:46.055Z,-2.02
2017-01-26T08:31:54.736Z,-2
2017-01-26T08:33:03.422Z,-2.02
2017-01-26T08:34:12.113Z,-1.97
2017-01-26T08:35:20.794Z,-1.84
2017-01-26T08:36:29.476Z,-1.94
2017-01-26T08:37:38.158Z,-1.89
2017-01-26T08:38:46.842Z,-1.81
2017-01-26T08:39:55.519Z,-1.84
2017-01-26T08:41:04.233Z,-1.92
2017-01-26T08:42:12.944Z,-1.76
2017-01-26T08:43:21.637Z,-1.72
2017-01-26T08:44:30.378Z,-1.76
2017-01-26T08:45:39.056Z,-1.84
2017-01-26T08:46:47.745Z,-1.75
2017-01-26T08:47:56.430Z,-1.68
2017-01-26T08:49:05.118Z,-1.74
2017-01-26T08:50:13.803Z,-1.69
2017-01-26T08:51:22.484Z,-1.63
2017-01-26T08:52:31.174Z,-1.69
2017-01-26T08:53:39.864Z,-1.6
2017-01-26T08:54:48.546Z,-1.64
2017-01-26T08:55:57.227Z,-1.57
2017-01-26T08:57:05.911Z,-1.48
2017-01-26T08:58:14.597Z,-1.57
2017-01-26T08:59:23.288Z,-1.45
2017-01-26T09:00:32.372Z,-1.4
2017-01-26T09:01:41.064Z,-1.43
2017-01-26T09:02:49.751Z,-1.3
2017-01-26T09:03:58.434Z,-1.24
2017-01-26T09:05:07.123Z,-1.24
2017-01-26T09:06:15.814Z,-1.22
2017-01-26T09:07:24.495Z,-1.17
2017-01-26T09:08:33.175Z,-1.14
2017-01-26T09:09:41.864Z,-1.21
2017-01-26T09:10:50.553Z,-1.14
2017-01-26T09:11:59.253Z,-1.15
2017-01-26T09:13:07.946Z,-1.12
2017-01-26T09:14:16.632Z,-1.17
2017-01-26T09:15:25.316Z,-1.11
2017-01-26T09:16:33.996Z,-1.15
2017-01-26T09:17:42.681Z,-1.06
2017-01-26T09:18:51.371Z,-1.03
2017-01-26T09:20:00.056Z,-1
2017-01-26T09:21:08.746Z,-0.89
2017-01-26T09:22:17.431Z,-0.78
2017-01-26T09:23:26.116Z,-0.67
2017-01-26T09:24:34.814Z,-0.56
2017-01-26T09:25:43.499Z,-0.56
2017-01-26T09:26:52.188Z,-0.45
2017-01-26T09:28:00.877Z,-0.39
2017-01-26T09:29:09.566Z,-0.3
2017-01-26T09:30:18.313Z,-0.2
2017-01-26T09:31:27.000Z,-0.06
2017-01-26T09:32:35.683Z,-0.06
2017-01-26T09:33:44.384Z,-0.02
2017-01-26T09:34:53.072Z,-0.02
2017-01-26T09:36:01.758Z,-0.02
2017-01-26T09:37:10.452Z,0.11
2017-01-26T09:38:19.141Z,0.06
2017-01-26T09:39:27.835Z,0.08
2017-01-26T09:40:36.521Z,0.13
2017-01-26T09:41:45.211Z,0.18
2017-01-26T09:42:53.901Z,0.12
2017-01-26T09:44:03.014Z,0.16
2017-01-26T09:45:11.704Z,0.2
2017-01-26T09:46:20.394Z,0.2
2017-01-26T09:47:29.078Z,0.26
2017-01-26T09:48:37.767Z,0.29
2017-01-26T09:49:46.482Z,0.27
2017-01-26T09:50:55.168Z,0.36
2017-01-26T09:52:03.857Z,0.39
2017-01-26T09:53:12.545Z,0.4
2017-01-26T09:54:21.229Z,0.39
2017-01-26T09:55:29.915Z,0.44
2017-01-26T09:56:38.603Z,0.34
2017-01-26T09:57:47.296Z,0.45
2017-01-26T09:58:55.981Z,0.47
2017-01-26T10:00:04.675Z,0.45
2017-01-26T10:01:13.366Z,0.52
2017-01-26T10:02:22.053Z,0.48
2017-01-26T10:03:30.738Z,0.49
2017-01-26T10:04:39.429Z,0.47
2017-01-26T10:05:48.118Z,0.51
2017-01-26T10:06:56.820Z,0.47
2017-01-26T10:08:05.512Z,0.49
2017-01-26T10:09:14.198Z,0.44
2017-01-26T10:10:22.885Z,0.47
2017-01-26T10:11:31.577Z,0.51
2017-01-26T10:12:40.265Z,0.42
2017-01-26T10:13:48.951Z,0.27
2017-01-26T10:14:57.647Z,0.23
2017-01-26T10:16:06.331Z,0.15
2017-01-26T10:17:15.025Z,0.23
2017-01-26T10:18:23.719Z,0.08
2017-01-26T10:19:32.403Z,0
2017-01-26T10:20:41.096Z,0
2017-01-26T10:21:49.792Z,0.11
2017-01-26T10:22:58.477Z,0.13
2017-01-26T10:24:07.167Z,0.15
2017-01-26T10:25:15.855Z,0.29
2017-01-26T10:26:24.544Z,0.36
2017-01-26T10:27:33.228Z,0.37
2017-01-26T10:28:41.919Z,0.45
2017-01-26T10:29:50.719Z,0.49
2017-01-26T10:30:59.637Z,0.39
2017-01-26T10:32:09.118Z,0.52
2017-01-26T10:33:18.012Z,0.44
2017-01-26T10:34:26.706Z,0.33
2017-01-26T10:35:35.395Z,0.34
2017-01-26T10:36:44.111Z,0.34
2017-01-26T10:37:52.791Z,0.34
2017-01-26T10:39:01.484Z,0.45
2017-01-26T10:40:10.171Z,0.51
2017-01-26T10:41:18.868Z,0.48
2017-01-26T10:42:27.561Z,0.49
2017-01-26T10:43:36.263Z,0.56
2017-01-26T10:44:44.950Z,0.64
2017-01-26T10:45:53.638Z,0.77
2017-01-26T10:47:02.730Z,0.68
2017-01-26T10:48:11.431Z,0.63
2017-01-26T10:49:20.126Z,0.49
2017-01-26T10:50:28.815Z,0.48
2017-01-26T10:51:37.506Z,0.49
2017-01-26T10:52:46.194Z,0.45
2017-01-26T10:53:54.887Z,0.47
2017-01-26T10:55:03.579Z,0.37
2017-01-26T10:56:12.275Z,0.26
2017-01-26T10:57:20.963Z,0.13
2017-01-26T10:58:29.656Z,0.15
2017-01-26T10:59:38.347Z,0.11
2017-01-26T11:00:47.034Z,0.27
2017-01-26T11:01:55.725Z,0.34
2017-01-26T11:03:04.414Z,0.29
2017-01-26T11:04:13.164Z,0.3
2017-01-26T11:05:21.859Z,0.39
2017-01-26T11:06:30.551Z,0.29
2017-01-26T11:07:39.243Z,0.42
2017-01-26T11:08:48.337Z,0.45
2017-01-26T11:09:57.028Z,0.47
2017-01-26T11:11:05.722Z,0.52
2017-01-26T11:12:14.413Z,0.39
2017-01-26T11:13:23.107Z,0.36
2017-01-26T11:14:31.799Z,0.29
2017-01-26T11:15:40.523Z,0.36
2017-01-26T11:16:49.209Z,0.08
2017-01-26T11:17:57.907Z,0.05
2017-01-26T11:19:06.628Z,0
2017-01-26T11:20:15.315Z,0.09
2017-01-26T11:21:24.028Z,0.01
2017-01-26T11:22:32.721Z,0.08
2017-01-26T11:23:41.442Z,0.09
2017-01-26T11:24:50.135Z,0.01
2017-01-26T11:25:58.827Z,0.05
2017-01-26T11:27:07.523Z,0.11
2017-01-26T11:28:16.217Z,0.16
2017-01-26T11:29:24.907Z,0.15
2017-01-26T11:30:33.594Z,0.13
2017-01-26T11:31:42.341Z,0.23
2017-01-26T11:32:51.037Z,0.2
2017-01-26T11:33:59.727Z,0.31
2017-01-26T11:35:08.415Z,0.36
2017-01-26T11:36:17.157Z,0.34
2017-01-26T11:37:25.851Z,0.33
2017-01-26T11:38:48.301Z,0.33
2017-01-26T11:39:56.997Z,0.42
2017-01-26T11:41:05.685Z,0.49
2017-01-26T11:42:14.375Z,0.48
2017-01-26T11:43:23.067Z,0.58
2017-01-26T11:44:31.755Z,0.7
2017-01-26T11:45:40.450Z,0.81
2017-01-26T11:46:49.142Z,0.81
2017-01-26T11:47:57.832Z,0.88
2017-01-26T11:49:06.524Z,0.91
2017-01-26T11:50:15.223Z,1.03
2017-01-26T11:51:23.914Z,0.95
2017-01-26T11:52:32.603Z,1.12
2017-01-26T11:53:41.297Z,1.07
2017-01-26T11:54:50.008Z,1.24
2017-01-26T11:55:58.698Z,1.14
2017-01-26T11:57:07.390Z,1.2
2017-01-26T11:58:16.120Z,1.25
2017-01-26T11:59:24.813Z,1.24
2017-01-26T12:00:33.502Z,1.28
2017-01-26T12:01:42.191Z,1.31
2017-01-26T12:02:50.875Z,1.36
2017-01-26T12:03:59.565Z,1.45
2017-01-26T12:05:08.306Z,1.48
2017-01-26T12:06:16.996Z,1.49
2017-01-26T12:07:25.684Z,1.57
2017-01-26T12:08:34.377Z,1.57
2017-01-26T12:09:43.076Z,1.56
2017-01-26T12:10:51.770Z,1.61
2017-01-26T12:12:00.462Z,1.74
2017-01-26T12:13:09.153Z,1.64
2017-01-26T12:14:17.841Z,1.6
2017-01-26T12:15:26.542Z,1.66
2017-01-26T12:16:35.235Z,1.68
2017-01-26T12:17:43.920Z,1.58
2017-01-26T12:18:52.612Z,1.46
2017-01-26T12:20:01.301Z,1.25
2017-01-26T12:21:09.994Z,1.22
2017-01-26T12:22:18.735Z,1.2
2017-01-26T12:23:27.429Z,1.16
2017-01-26T12:24:36.172Z,1.16
2017-01-26T12:25:44.863Z,1.16
2017-01-26T12:26:53.553Z,1.02
2017-01-26T12:28:02.245Z,0.95
2017-01-26T12:29:10.936Z,0.78
2017-01-26T12:30:19.635Z,0.64
2017-01-26T12:31:28.329Z,0.51
2017-01-26T12:32:37.047Z,0.45
2017-01-26T12:33:45.734Z,0.58
2017-01-26T12:34:54.422Z,0.56
2017-01-26T12:36:03.109Z,0.55
2017-01-26T12:37:11.795Z,0.52
2017-01-26T12:38:20.490Z,0.47
2017-01-26T12:39:29.183Z,0.42
2017-01-26T12:40:37.887Z,0.33
2017-01-26T12:41:46.575Z,0.39
2017-01-26T12:42:55.259Z,0.37
2017-01-26T12:44:03.945Z,0.44
2017-01-26T12:45:12.639Z,0.48
2017-01-26T12:46:21.332Z,0.61
2017-01-26T12:47:30.025Z,0.7
2017-01-26T12:48:38.717Z,0.68
2017-01-26T12:49:47.404Z,0.74
2017-01-26T12:50:56.092Z,0.88
2017-01-26T12:52:04.783Z,0.81
2017-01-26T12:53:13.470Z,0.88
2017-01-26T12:54:22.158Z,0.95
2017-01-26T12:55:30.847Z,1
2017-01-26T12:56:39.535Z,1.06
2017-01-26T12:57:48.235Z,1.16
2017-01-26T12:58:56.944Z,1.24
2017-01-26T13:00:05.639Z,1.25
2017-01-26T13:01:14.727Z,1.25
2017-01-26T13:02:23.432Z,1.31
2017-01-26T13:03:32.121Z,1.31
2017-01-26T13:04:40.808Z,1.34
2017-01-26T13:05:49.490Z,1.38
2017-01-26T13:06:58.180Z,1.32
2017-01-26T13:08:06.873Z,1.52
2017-01-26T13:09:16.251Z,1.71
2017-01-26T13:10:24.940Z,1.84
2017-01-26T13:11:33.629Z,1.89
2017-01-26T13:12:42.323Z,1.86
2017-01-26T13:13:51.011Z,1.86
2017-01-26T13:14:59.702Z,1.95
2017-01-26T13:16:08.397Z,1.97
2017-01-26T13:17:17.088Z,2.03
2017-01-26T13:18:25.780Z,1.98
2017-01-26T13:19:34.468Z,2
2017-01-26T13:20:43.152Z,1.86
2017-01-26T13:21:51.847Z,1.85
2017-01-26T13:23:00.538Z,1.75
2017-01-26T13:24:09.226Z,1.42
2017-01-26T13:25:17.913Z,1.32
2017-01-26T13:26:26.608Z,1.18
2017-01-26T13:27:36.090Z,0.91
2017-01-26T13:28:46.768Z,0.67
2017-01-26T13:29:57.451Z,0.67
2017-01-26T13:31:08.142Z,0.61
2017-01-26T13:32:18.031Z,0.47
2017-01-26T13:33:28.718Z,0.42
2017-01-26T13:34:39.397Z,0.27
2017-01-26T13:35:49.676Z,0.29
2017-01-26T13:36:59.958Z,0.08
2017-01-26T13:38:09.841Z,0.16
2017-01-26T13:39:20.121Z,0.2
2017-01-26T13:40:30.802Z,0.12
2017-01-26T13:41:41.476Z,0.09
2017-01-26T13:42:52.148Z,-0.02
2017-01-26T13:44:02.421Z,-0.09
2017-01-26T13:45:12.696Z,0.02
2017-01-26T13:46:22.576Z,0
2017-01-26T13:47:33.252Z,-0.05
2017-01-26T13:48:43.924Z,-0.05
2017-01-26T13:49:54.603Z,-0.02
2017-01-26T13:51:04.490Z,0.02
2017-01-26T13:52:15.171Z,0.08
2017-01-26T13:53:25.516Z,0
2017-01-26T13:54:36.194Z,-0.06
2017-01-26T13:55:46.868Z,-0.09
2017-01-26T13:56:57.539Z,-0.03
2017-01-26T13:58:07.823Z,-0.07
2017-01-26T13:59:18.098Z,-0.09
2017-01-26T14:00:28.373Z,0
2017-01-26T14:01:39.047Z,-0.03
2017-01-26T14:02:49.328Z,0.01
2017-01-26T14:04:00.000Z,0.05
2017-01-26T14:05:10.280Z,0.02
2017-01-26T14:06:20.551Z,0
2017-01-26T14:07:30.830Z,0.09
2017-01-26T14:08:41.508Z,0.08
2017-01-26T14:09:52.186Z,0.01
2017-01-26T14:11:02.461Z,0.11
2017-01-26T14:12:12.343Z,0.06
2017-01-26T14:13:22.622Z,0.05
2017-01-26T14:14:33.298Z,0.02
2017-01-26T14:15:43.572Z,-0.03
2017-01-26T14:16:54.251Z,-0.02
2017-01-26T14:18:04.936Z,0
2017-01-26T14:19:15.609Z,-0.13
2017-01-26T14:20:26.284Z,-0.41
2017-01-26T14:21:36.954Z,-0.36
2017-01-26T14:22:47.619Z,-0.46
2017-01-26T14:23:57.894Z,-0.51
2017-01-26T14:25:08.174Z,-0.6
2017-01-26T14:26:18.457Z,-0.57
2017-01-26T14:27:28.744Z,-0.56
2017-01-26T14:28:39.423Z,-0.56
2017-01-26T14:29:49.702Z,-0.66
2017-01-26T14:31:00.375Z,-0.72
2017-01-26T14:32:10.654Z,-0.91
2017-01-26T14:33:20.933Z,-0.91
2017-01-26T14:34:31.615Z,-1.03
2017-01-26T14:35:42.287Z,-0.82
2017-01-26T14:36:52.958Z,-0.89
2017-01-26T14:38:03.635Z,-0.78
2017-01-26T14:39:13.912Z,-0.94
2017-01-26T14:40:24.586Z,-0.82
2017-01-26T14:41:34.864Z,-0.97
2017-01-26T14:42:45.545Z,-1.03
2017-01-26T14:43:56.223Z,-1.01
2017-01-26T14:45:06.904Z,-1.12
2017-01-26T14:46:16.826Z,-1.12
2017-01-26T14:47:27.603Z,-1.12
2017-01-26T14:48:38.270Z,-1.12
2017-01-26T14:49:48.955Z,-1.12
2017-01-26T14:50:59.239Z,-1.21
2017-01-26T14:52:09.120Z,-1.17
2017-01-26T14:53:18.998Z,-1.07
2017-01-26T14:54:28.896Z,-1.15
2017-01-26T14:55:39.571Z,-1.14
2017-01-26T14:56:49.459Z,-1.17
2017-01-26T14:57:59.344Z,-1.33
2017-01-26T14:59:10.020Z,-1.35
2017-01-26T15:00:20.302Z,-1.39